Time;durP1;ratioP1;P1;durP2;ratioP2;P2;SDS_P1;SDS_P2;PMS_P1;PMS_P2;Temp;Humidity;BMP_temperature;BMP_pressure;BME280_temperature;BME280_humidity;BME280_pressure;Samples;Min_cycle;Max_cycle;Signal;HPM_P1;HPM_P2
2023/03/08 00:01:02;;;;;;;4.80;1.87;;;1.80;99.90;;;;;;5088171;28;20268;-78
2023/03/08 00:03:28;;;;;;;7.70;1.83;;;1.80;99.90;;;;;;5065032;28;20705;-76
2023/03/08 00:05:54;;;;;;;10.90;2.30;;;1.70;99.90;;;;;;5086292;28;20219;-78
2023/03/08 00:08:19;;;;;;;5.77;1.80;;;1.80;99.90;;;;;;5089404;28;20215;-78
2023/03/08 00:10:45;;;;;;;8.57;2.30;;;1.70;99.90;;;;;;5085072;28;20287;-78
2023/03/08 00:13:11;;;;;;;4.60;2.10;;;1.70;99.90;;;;;;5085109;28;20203;-74
2023/03/08 00:15:37;;;;;;;5.10;2.00;;;1.70;99.90;;;;;;5071264;28;20233;-82
2023/03/08 00:18:04;;;;;;;2.53;1.40;;;1.60;99.90;;;;;;5090215;28;20702;-78
2023/03/08 00:20:30;;;;;;;5.60;2.20;;;1.60;99.90;;;;;;5072964;28;20361;-77
2023/03/08 00:22:56;;;;;;;5.97;2.20;;;1.60;99.90;;;;;;5073258;28;20317;-78
2023/03/08 00:25:21;;;;;;;4.80;2.10;;;1.50;99.90;;;;;;5084916;28;20210;-79
2023/03/08 00:27:47;;;;;;;6.67;2.10;;;1.50;99.90;;;;;;5064773;28;20206;-77
2023/03/08 00:30:14;;;;;;;5.17;2.27;;;1.50;99.90;;;;;;5071741;28;20202;-79
2023/03/08 00:32:40;;;;;;;10.07;2.17;;;1.50;99.90;;;;;;5079733;28;20742;-78
2023/03/08 00:35:06;;;;;;;5.73;2.17;;;1.50;99.90;;;;;;5067903;28;20182;-78
2023/03/08 00:37:32;;;;;;;7.13;2.50;;;1.50;99.90;;;;;;5085142;28;20175;-76
2023/03/08 00:39:58;;;;;;;6.47;2.30;;;1.40;99.90;;;;;;5088971;28;20213;-79
2023/03/08 00:42:23;;;;;;;6.70;2.70;;;1.40;99.90;;;;;;5091961;28;20585;-74
2023/03/08 00:44:49;;;;;;;4.27;2.13;;;1.40;99.90;;;;;;5082861;28;20278;-78
2023/03/08 00:47:15;;;;;;;5.50;2.00;;;1.40;99.90;;;;;;5092874;28;20220;-78
2023/03/08 00:49:41;;;;;;;6.07;2.07;;;1.40;99.90;;;;;;5075068;28;20290;-78
2023/03/08 00:52:07;;;;;;;5.93;2.20;;;1.40;99.90;;;;;;5072635;28;20230;-78
2023/03/08 00:54:33;;;;;;;5.07;1.77;;;1.30;99.90;;;;;;5077882;28;20557;-75
2023/03/08 00:56:58;;;;;;;10.57;2.60;;;1.40;99.90;;;;;;5079426;28;20245;-77
2023/03/08 00:59:24;;;;;;;7.90;2.40;;;1.40;99.90;;;;;;5065025;28;20302;-75
2023/03/08 01:01:50;;;;;;;6.07;2.20;;;1.60;99.90;;;;;;5085183;28;20209;-76
2023/03/08 01:04:16;;;;;;;8.57;2.60;;;1.60;99.90;;;;;;5085161;28;20217;-73
2023/03/08 01:06:42;;;;;;;5.47;2.70;;;1.60;99.90;;;;;;5083961;28;20208;-74
2023/03/08 01:09:09;;;;;;;3.93;2.20;;;1.50;99.90;;;;;;5070372;28;20209;-74
2023/03/08 01:11:36;;;;;;;6.50;2.37;;;1.40;99.90;;;;;;5065195;28;20568;-74
2023/03/08 01:14:03;;;;;;;11.03;2.67;;;1.40;99.90;;;;;;5087057;28;20554;-76
2023/03/08 01:16:31;;;;;;;6.87;2.57;;;1.30;99.90;;;;;;5087938;28;20183;-74
2023/03/08 01:18:58;;;;;;;6.27;2.70;;;1.30;99.90;;;;;;5066465;28;20205;-73
2023/03/08 01:21:25;;;;;;;10.47;3.40;;;1.30;99.90;;;;;;5087989;28;20698;-73
2023/03/08 01:23:51;;;;;;;6.23;2.93;;;1.30;99.90;;;;;;5085100;28;20686;-76
2023/03/08 01:26:19;;;;;;;9.20;3.07;;;1.20;99.90;;;;;;5069455;28;20244;-75
2023/03/08 01:28:45;;;;;;;6.80;3.20;;;1.20;99.90;;;;;;5089995;28;20246;-75
2023/03/08 01:31:14;;;;;;;6.17;3.57;;;1.20;99.90;;;;;;5068890;28;20201;-75
2023/03/08 01:33:41;;;;;;;7.77;3.20;;;1.10;99.90;;;;;;5090851;28;20282;-75
2023/03/08 01:36:09;;;;;;;5.47;3.30;;;1.10;99.90;;;;;;5086591;28;20206;-76
2023/03/08 01:38:35;;;;;;;6.27;3.40;;;1.10;99.90;;;;;;5069945;28;20563;-75
2023/03/08 01:41:02;;;;;;;8.47;3.90;;;1.10;99.90;;;;;;5086513;28;20218;-76
2023/03/08 01:43:29;;;;;;;7.33;3.63;;;1.10;99.90;;;;;;5088717;28;20205;-74
2023/03/08 01:46:25;;;;;;;10.00;3.97;;;1.10;99.90;;;;;;5072557;28;20296;-75
2023/03/08 01:48:53;;;;;;;7.37;4.00;;;1.00;99.90;;;;;;5069591;28;20290;-74
2023/03/08 01:51:25;;;;;;;8.63;3.57;;;1.10;99.90;;;;;;5062505;28;20696;-74
2023/03/08 01:53:51;;;;;;;7.73;4.17;;;1.00;99.90;;;;;;5084707;28;20231;-74
2023/03/08 01:56:19;;;;;;;7.43;4.03;;;1.00;99.90;;;;;;5087592;28;20224;-73
2023/03/08 01:58:49;;;;;;;7.23;4.03;;;1.00;99.90;;;;;;5090378;28;20300;-74
2023/03/08 02:01:16;;;;;;;11.23;4.77;;;1.00;99.90;;;;;;5084866;28;20213;-74
2023/03/08 02:03:43;;;;;;;11.80;5.00;;;1.00;99.90;;;;;;5088351;28;20221;-75
2023/03/08 02:06:09;;;;;;;8.80;4.70;;;1.00;99.90;;;;;;5072005;28;20915;-74
2023/03/08 02:08:35;;;;;;;9.90;4.23;;;1.00;99.90;;;;;;5087660;28;20247;-72
2023/03/08 02:11:01;;;;;;;8.27;5.20;;;0.90;99.90;;;;;;5069955;28;20323;-75
2023/03/08 02:13:27;;;;;;;11.97;5.10;;;0.90;99.90;;;;;;5090977;28;20280;-73
2023/03/08 02:15:55;;;;;;;10.50;5.10;;;0.90;99.90;;;;;;5090671;28;20217;-76
2023/03/08 02:18:21;;;;;;;9.87;5.83;;;0.90;99.90;;;;;;5086784;28;20214;-75
2023/03/08 02:20:47;;;;;;;11.07;6.00;;;0.90;99.90;;;;;;5067914;28;20236;-77
2023/03/08 02:23:30;;;;;;;11.43;5.67;;;0.90;99.90;;;;;;5072467;28;20225;-75
2023/03/08 02:26:03;;;;;;;14.23;6.07;;;0.90;99.90;;;;;;5073117;28;20197;-76
2023/03/08 02:28:31;;;;;;;11.87;6.00;;;0.90;99.90;;;;;;5071765;28;20193;-76
2023/03/08 02:30:57;;;;;;;11.10;5.63;;;0.90;99.90;;;;;;5090205;28;20212;-73
2023/03/08 02:33:23;;;;;;;11.17;6.40;;;0.80;99.90;;;;;;5088123;28;20633;-75
2023/03/08 02:35:49;;;;;;;9.37;6.00;;;0.80;99.90;;;;;;5064827;28;20272;-75
2023/03/08 02:38:17;;;;;;;12.30;6.60;;;0.80;99.90;;;;;;5085910;28;20211;-75
2023/03/08 02:40:42;;;;;;;12.73;6.13;;;0.80;99.90;;;;;;5089065;28;20209;-75
2023/03/08 02:43:09;;;;;;;12.33;6.53;;;0.80;99.90;;;;;;5088489;28;20240;-73
2023/03/08 02:45:35;;;;;;;14.53;6.90;;;0.80;99.90;;;;;;5067361;28;20224;-78
2023/03/08 02:48:02;;;;;;;14.10;6.70;;;0.80;99.90;;;;;;5071676;28;20291;-75
2023/03/08 02:50:28;;;;;;;14.83;7.00;;;0.80;99.90;;;;;;5086262;28;20822;-75
2023/03/08 02:52:54;;;;;;;13.97;6.73;;;0.80;99.90;;;;;;5089151;28;20266;-75
2023/03/08 02:55:20;;;;;;;9.87;6.93;;;0.80;99.90;;;;;;5090944;28;20588;-75
2023/03/08 02:57:45;;;;;;;12.63;7.73;;;0.70;99.90;;;;;;5090019;28;20208;-72
2023/03/08 03:00:11;;;;;;;16.77;7.53;;;0.70;99.90;;;;;;5081751;28;20699;-75
2023/03/08 03:02:37;;;;;;;11.57;7.30;;;0.70;99.90;;;;;;5070791;28;20222;-76
2023/03/08 03:05:04;;;;;;;12.80;7.37;;;0.70;99.90;;;;;;5090063;28;20211;-75
2023/03/08 03:07:29;;;;;;;13.53;6.87;;;0.70;99.90;;;;;;5083837;28;20180;-75
2023/03/08 03:09:55;;;;;;;14.10;6.93;;;0.70;99.90;;;;;;5089801;28;20224;-77
2023/03/08 03:12:21;;;;;;;11.87;7.27;;;0.70;99.90;;;;;;5085394;28;20280;-73
2023/03/08 03:14:46;;;;;;;15.67;7.40;;;0.80;99.90;;;;;;5089574;28;20594;-75
2023/03/08 03:17:12;;;;;;;13.67;7.60;;;0.80;99.90;;;;;;5071659;28;20682;-76
2023/03/08 03:19:37;;;;;;;13.30;7.53;;;0.80;99.90;;;;;;5083883;28;20191;-74
2023/03/08 03:22:03;;;;;;;12.83;6.77;;;0.80;99.90;;;;;;5071419;28;20214;-73
2023/03/08 03:24:29;;;;;;;12.33;7.77;;;0.90;99.90;;;;;;5083972;28;20217;-75
2023/03/08 03:26:55;;;;;;;11.60;7.27;;;0.90;99.90;;;;;;5088027;28;20608;-73
2023/03/08 03:29:20;;;;;;;13.17;7.60;;;0.90;99.90;;;;;;5069864;28;20692;-77
2023/03/08 03:31:47;;;;;;;15.40;8.50;;;0.90;99.90;;;;;;5090193;28;20207;-75
2023/03/08 03:34:13;;;;;;;13.30;8.00;;;0.90;99.90;;;;;;5066930;28;20236;-73
2023/03/08 03:36:39;;;;;;;15.33;8.00;;;0.90;99.90;;;;;;5089358;28;20703;-74
2023/03/08 03:39:04;;;;;;;13.20;7.63;;;0.90;99.90;;;;;;5093456;28;20206;-74
2023/03/08 03:41:30;;;;;;;15.13;7.93;;;0.80;99.90;;;;;;5089746;28;20225;-76
2023/03/08 03:43:57;;;;;;;14.83;7.63;;;0.80;99.90;;;;;;5088718;28;20260;-75
2023/03/08 03:46:23;;;;;;;13.23;8.00;;;0.90;99.90;;;;;;5092265;28;20527;-76
2023/03/08 03:48:49;;;;;;;13.40;7.60;;;0.80;99.90;;;;;;5068654;28;20244;-73
2023/03/08 03:51:20;;;;;;;15.20;8.50;;;0.80;99.90;;;;;;5086546;28;20216;-75
2023/03/08 03:53:46;;;;;;;15.17;7.90;;;0.90;99.90;;;;;;5069430;28;20701;-74
2023/03/08 03:56:13;;;;;;;13.73;8.03;;;0.90;99.90;;;;;;5059751;28;20221;-73
2023/03/08 03:58:40;;;;;;;11.80;8.27;;;0.90;99.90;;;;;;5087751;28;20211;-71
2023/03/08 04:01:17;;;;;;;14.00;8.00;;;1.00;99.90;;;;;;5087435;28;20199;-69
2023/03/08 04:03:43;;;;;;;12.10;7.77;;;1.00;99.90;;;;;;5062349;28;20214;-72
2023/03/08 04:06:13;;;;;;;14.47;7.93;;;1.00;99.90;;;;;;5087435;28;20251;-72
2023/03/08 04:08:40;;;;;;;15.43;7.50;;;1.00;99.90;;;;;;5088009;28;20673;-73
2023/03/08 04:11:10;;;;;;;15.57;8.13;;;1.00;99.90;;;;;;5085407;28;20175;-72
2023/03/08 04:13:37;;;;;;;14.63;7.60;;;0.90;99.90;;;;;;5083162;28;20206;-72
2023/03/08 04:16:18;;;;;;;13.93;7.53;;;0.80;99.90;;;;;;5073656;28;20328;-72
2023/03/08 04:18:45;;;;;;;11.47;7.83;;;0.80;99.90;;;;;;5087122;28;20211;-72
2023/03/08 04:21:11;;;;;;;19.40;8.53;;;0.80;99.90;;;;;;5073236;28;20374;-71
2023/03/08 04:23:37;;;;;;;13.67;7.93;;;0.70;99.90;;;;;;5083528;28;20357;-71
2023/03/08 04:26:04;;;;;;;13.33;7.30;;;0.70;99.90;;;;;;5084674;28;20207;-74
2023/03/08 04:28:30;;;;;;;13.27;7.50;;;0.70;99.90;;;;;;5066831;28;20216;-72
2023/03/08 04:30:56;;;;;;;15.03;7.27;;;0.80;99.90;;;;;;5085049;28;20297;-73
2023/03/08 04:33:22;;;;;;;14.03;8.13;;;0.80;99.90;;;;;;5089857;28;20286;-75
2023/03/08 04:35:48;;;;;;;11.20;7.17;;;0.80;99.90;;;;;;5071210;28;20324;-72
2023/03/08 04:38:14;;;;;;;12.30;7.33;;;0.80;99.90;;;;;;5062086;28;20215;-72
2023/03/08 04:41:04;;;;;;;11.30;7.40;;;0.80;99.90;;;;;;5064424;28;20185;-73
2023/03/08 04:43:31;;;;;;;11.10;7.20;;;0.70;99.90;;;;;;5067706;28;20220;-72
2023/03/08 04:45:57;;;;;;;13.20;7.60;;;0.70;99.90;;;;;;5083104;28;20258;-74
2023/03/08 04:48:23;;;;;;;13.53;7.30;;;0.60;99.90;;;;;;5065324;28;20335;-74
2023/03/08 04:50:56;;;;;;;12.27;7.10;;;0.60;99.90;;;;;;5086657;28;20547;-73
2023/03/08 04:53:23;;;;;;;12.77;7.60;;;0.50;99.90;;;;;;5086874;28;20602;-73
2023/03/08 04:55:49;;;;;;;12.27;7.93;;;0.50;99.90;;;;;;5095956;22;20605;-74
2023/03/08 04:58:15;;;;;;;11.83;7.20;;;0.50;99.90;;;;;;5047565;28;20211;-76
2023/03/08 05:00:41;;;;;;;15.73;10.00;;;0.50;99.90;;;;;;5068775;28;20932;-75
2023/03/08 05:03:07;;;;;;;14.73;8.30;;;0.50;99.90;;;;;;5067319;28;20448;-76
2023/03/08 05:05:32;;;;;;;12.77;7.37;;;0.40;99.90;;;;;;5045612;28;20218;-76
2023/03/08 05:08:04;;;;;;;13.10;7.70;;;0.40;99.90;;;;;;5052223;28;20620;-76
2023/03/08 05:10:31;;;;;;;15.60;8.07;;;0.40;99.90;;;;;;5067402;28;20214;-76
2023/03/08 05:12:57;;;;;;;15.03;7.97;;;0.40;99.90;;;;;;5051680;28;20211;-77
2023/03/08 05:15:23;;;;;;;12.17;7.27;;;0.50;99.90;;;;;;5066543;28;20214;-78
2023/03/08 05:17:49;;;;;;;12.77;7.67;;;0.50;99.90;;;;;;5061876;28;20215;-78
2023/03/08 05:20:15;;;;;;;12.93;7.13;;;0.40;99.90;;;;;;5065795;28;20709;-78
2023/03/08 05:22:42;;;;;;;12.97;7.87;;;0.40;99.90;;;;;;5071915;28;20175;-79
2023/03/08 05:25:09;;;;;;;14.00;7.43;;;0.40;99.90;;;;;;5048008;28;20267;-79
2023/03/08 05:27:35;;;;;;;12.13;7.23;;;0.40;99.90;;;;;;5048687;28;20216;-78
2023/03/08 05:30:01;;;;;;;12.17;6.77;;;0.40;99.90;;;;;;5048090;28;20218;-78
2023/03/08 05:32:26;;;;;;;13.57;7.60;;;0.40;99.90;;;;;;5046689;28;20223;-77
2023/03/08 05:34:52;;;;;;;11.70;7.53;;;0.50;99.90;;;;;;5052067;28;20211;-78
2023/03/08 05:37:18;;;;;;;14.83;6.97;;;0.50;99.90;;;;;;5066471;28;20613;-78
2023/03/08 05:39:43;;;;;;;14.27;8.27;;;0.50;99.90;;;;;;5050891;28;20269;-75
2023/03/08 05:42:11;;;;;;;15.13;7.93;;;0.50;99.90;;;;;;5066492;28;20265;-76
2023/03/08 05:44:37;;;;;;;12.13;6.87;;;0.50;99.90;;;;;;5067604;28;20255;-75
2023/03/08 05:47:03;;;;;;;13.33;7.60;;;0.50;99.90;;;;;;5067484;28;20212;-75
2023/03/08 05:49:29;;;;;;;11.03;6.93;;;0.50;99.90;;;;;;5063126;28;20183;-76
2023/03/08 05:51:54;;;;;;;14.87;7.80;;;0.50;99.90;;;;;;5060203;28;20294;-77
2023/03/08 05:54:20;;;;;;;12.13;7.87;;;0.60;99.90;;;;;;5068577;28;20707;-76
2023/03/08 05:56:46;;;;;;;16.20;7.53;;;0.70;99.90;;;;;;5065674;28;20221;-77
2023/03/08 05:59:12;;;;;;;10.60;6.57;;;0.70;99.90;;;;;;5065227;28;20214;-75
2023/03/08 06:01:38;;;;;;;12.20;7.20;;;0.80;99.90;;;;;;5060938;28;20182;-78
2023/03/08 06:04:04;;;;;;;12.07;6.73;;;0.90;99.90;;;;;;5046402;28;20586;-77
2023/03/08 06:06:30;;;;;;;12.07;7.17;;;1.00;99.90;;;;;;5043025;28;20210;-76
2023/03/08 06:08:56;;;;;;;11.90;6.83;;;1.10;99.90;;;;;;5062265;28;20218;-77
2023/03/08 06:11:22;;;;;;;10.20;7.27;;;1.30;99.90;;;;;;5052772;28;20215;-75
2023/03/08 06:13:47;;;;;;;11.20;7.10;;;1.30;99.90;;;;;;5059965;28;20186;-76
2023/03/08 06:16:13;;;;;;;12.10;7.27;;;1.40;99.90;;;;;;5047773;28;20206;-78
2023/03/08 06:18:40;;;;;;;14.50;7.63;;;1.90;99.90;;;;;;5063572;28;20210;-76
2023/03/08 06:21:10;;;;;;;8.37;6.20;;;3.50;99.90;;;;;;5048465;28;20212;-75
2023/03/08 06:23:36;;;;;;;9.40;5.43;;;3.90;99.90;;;;;;5060921;28;20206;-76
2023/03/08 06:26:03;;;;;;;10.23;5.03;;;3.80;99.90;;;;;;5062388;28;20210;-76
2023/03/08 06:28:28;;;;;;;7.20;5.00;;;3.80;99.90;;;;;;5048739;28;20188;-75
2023/03/08 06:30:55;;;;;;;8.97;5.70;;;3.90;99.90;;;;;;5061889;28;20667;-78
2023/03/08 06:33:29;;;;;;;9.23;5.30;;;4.40;99.90;;;;;;5044704;28;20207;-76
2023/03/08 06:36:18;;;;;;;6.90;5.10;;;4.90;99.90;;;;;;5058305;28;20271;-76
2023/03/08 06:38:45;;;;;;;11.27;5.10;;;6.30;99.90;;;;;;5059280;28;20899;-76
2023/03/08 06:41:13;;;;;;;5.40;4.43;;;7.40;99.90;;;;;;5059849;28;20217;-75
2023/03/08 06:43:39;;;;;;;6.13;4.93;;;8.50;99.90;;;;;;5047404;28;20179;-75
2023/03/08 06:46:05;;;;;;;7.03;4.70;;;9.40;99.90;;;;;;5045169;28;20234;-74
2023/03/08 06:48:33;;;;;;;5.40;3.90;;;10.20;99.90;;;;;;5058192;28;20705;-77
2023/03/08 06:50:58;;;;;;;7.43;4.63;;;9.60;99.90;;;;;;5045730;28;20207;-75
2023/03/08 06:53:24;;;;;;;5.20;4.03;;;9.80;99.90;;;;;;5062611;28;20681;-77
2023/03/08 06:55:50;;;;;;;7.33;4.60;;;9.00;99.90;;;;;;5062590;28;20211;-76
2023/03/08 06:58:15;;;;;;;5.67;4.50;;;8.50;99.90;;;;;;5038024;28;20731;-76
2023/03/08 07:00:41;;;;;;;7.03;4.87;;;7.80;99.90;;;;;;5064225;28;20203;-76
2023/03/08 07:03:06;;;;;;;8.03;4.70;;;7.40;99.90;;;;;;5068399;28;20199;-76
2023/03/08 07:05:32;;;;;;;7.47;4.60;;;6.90;99.90;;;;;;5067592;28;20578;-77
2023/03/08 07:07:58;;;;;;;7.97;5.07;;;6.80;99.90;;;;;;5051103;28;20623;-76
2023/03/08 07:10:23;;;;;;;5.87;4.63;;;6.40;99.90;;;;;;5064918;28;20189;-77
2023/03/08 07:12:50;;;;;;;7.33;5.40;;;7.10;99.90;;;;;;5063521;28;20606;-77
2023/03/08 07:15:18;;;;;;;8.33;5.07;;;8.20;99.90;;;;;;5068587;28;20289;-74
2023/03/08 07:17:45;;;;;;;5.70;4.80;;;8.60;99.90;;;;;;5066257;28;20211;-76
2023/03/08 07:20:12;;;;;;;6.70;4.57;;;9.10;99.90;;;;;;5046193;28;20191;-75
2023/03/08 07:22:40;;;;;;;5.00;4.50;;;9.80;99.90;;;;;;5060796;28;20584;-76
2023/03/08 07:25:07;;;;;;;6.07;5.10;;;10.30;99.90;;;;;;5064362;28;20616;-75
2023/03/08 07:27:33;;;;;;;6.78;5.07;;;10.90;99.90;;;;;;5064133;28;20199;-73
2023/03/08 07:29:58;;;;;;;5.25;4.75;;;11.20;99.90;;;;;;5060031;28;20628;-77
2023/03/08 07:32:27;;;;;;;7.05;4.82;;;10.90;99.90;;;;;;5051992;28;20554;-76
2023/03/08 07:34:53;;;;;;;5.55;4.82;;;11.10;99.90;;;;;;5066352;28;20253;-76
2023/03/08 07:37:19;;;;;;;5.07;4.57;;;11.00;99.90;;;;;;5066069;28;20240;-76
2023/03/08 07:39:45;;;;;;;7.40;5.30;;;11.20;99.90;;;;;;5061806;28;20632;-77
2023/03/08 07:42:12;;;;;;;9.77;5.20;;;10.90;99.90;;;;;;5060996;28;20211;-77
2023/03/08 07:44:37;;;;;;;6.47;4.90;;;10.90;99.90;;;;;;5063112;28;20583;-76
2023/03/08 07:47:05;;;;;;;6.28;4.88;;;10.90;99.90;;;;;;5062447;28;20183;-77
2023/03/08 07:49:31;;;;;;;8.13;5.00;;;11.10;99.90;;;;;;5061835;28;20317;-74
2023/03/08 07:51:57;;;;;;;7.05;5.97;;;11.70;99.90;;;;;;5047292;28;20203;-76
2023/03/08 07:54:23;;;;;;;7.63;4.72;;;12.00;99.90;;;;;;5065332;28;20293;-77
2023/03/08 07:56:51;;;;;;;5.65;4.80;;;12.40;99.90;;;;;;5061509;28;21116;-77
2023/03/08 07:59:16;;;;;;;7.32;5.07;;;11.90;99.90;;;;;;5053828;28;20267;-77
2023/03/08 08:01:42;;;;;;;5.55;5.05;;;11.80;99.90;;;;;;5065035;28;20825;-78
2023/03/08 08:04:08;;;;;;;4.95;4.47;;;11.60;99.90;;;;;;5065122;28;20221;-77
2023/03/08 08:06:38;;;;;;;7.10;5.50;;;11.60;99.90;;;;;;5060862;28;20252;-78
2023/03/08 08:09:05;;;;;;;6.03;5.28;;;11.00;99.90;;;;;;5060996;28;20284;-77
2023/03/08 08:11:30;;;;;;;6.95;4.95;;;10.90;99.90;;;;;;5060114;28;20208;-76
2023/03/08 08:13:56;;;;;;;5.20;4.70;;;10.40;99.90;;;;;;5047996;28;20252;-77
2023/03/08 08:16:22;;;;;;;5.50;4.30;;;10.40;99.90;;;;;;5048628;28;20702;-78
2023/03/08 08:18:51;;;;;;;9.15;5.22;;;10.30;99.90;;;;;;5064802;28;20203;-77
2023/03/08 08:21:17;;;;;;;8.02;5.28;;;10.70;99.90;;;;;;5061538;28;20739;-78
2023/03/08 08:23:42;;;;;;;6.72;4.97;;;10.80;99.90;;;;;;5064281;28;20211;-78
2023/03/08 08:26:18;;;;;;;7.20;4.80;;;11.00;99.90;;;;;;5062922;28;20269;-77
2023/03/08 08:28:46;;;;;;;5.32;4.82;;;11.00;99.90;;;;;;5066405;28;20730;-77
2023/03/08 08:31:15;;;;;;;5.13;4.63;;;11.20;99.90;;;;;;5063075;28;20207;-77
2023/03/08 08:33:40;;;;;;;5.63;4.70;;;11.20;99.90;;;;;;5062899;28;20219;-77
2023/03/08 08:36:09;;;;;;;6.90;4.53;;;10.70;99.90;;;;;;5045521;28;20871;-76
2023/03/08 08:38:35;;;;;;;5.22;4.00;;;10.40;99.90;;;;;;5063757;28;20207;-78
2023/03/08 08:41:06;;;;;;;5.45;4.85;;;10.00;99.90;;;;;;5051400;28;20615;-78
2023/03/08 08:43:33;;;;;;;7.57;4.77;;;9.50;99.90;;;;;;5060676;28;20167;-76
2023/03/08 08:46:00;;;;;;;8.40;5.10;;;9.60;99.90;;;;;;5064619;28;20230;-79
2023/03/08 08:48:27;;;;;;;7.63;5.40;;;9.50;99.90;;;;;;5062776;28;20215;-79
2023/03/08 08:50:53;;;;;;;6.83;4.30;;;9.10;99.90;;;;;;5061419;28;20232;-78
2023/03/08 08:53:20;;;;;;;4.73;4.10;;;9.60;99.90;;;;;;5060820;28;20699;-78
2023/03/08 08:55:46;;;;;;;4.87;4.27;;;9.80;99.90;;;;;;5064209;28;20242;-77
2023/03/08 08:58:12;;;;;;;5.07;4.47;;;9.80;99.90;;;;;;5064283;28;20300;-76
2023/03/08 09:00:38;;;;;;;8.90;5.07;;;9.70;99.90;;;;;;5060900;28;20210;-77
2023/03/08 09:03:04;;;;;;;5.10;3.90;;;9.60;99.90;;;;;;5065491;28;20211;-78
2023/03/08 09:05:31;;;;;;;5.50;4.30;;;9.30;99.90;;;;;;5048223;28;20852;-77
2023/03/08 09:07:58;;;;;;;7.43;4.57;;;9.30;99.90;;;;;;5061734;28;20179;-74
2023/03/08 09:10:29;;;;;;;4.83;3.37;;;9.40;99.90;;;;;;5062738;28;20198;-77
2023/03/08 09:12:55;;;;;;;5.70;3.43;;;9.60;99.90;;;;;;5065929;28;20215;-77
2023/03/08 09:15:21;;;;;;;5.20;3.33;;;9.30;99.90;;;;;;5059652;28;20214;-77
2023/03/08 09:17:47;;;;;;;4.73;3.50;;;9.10;99.90;;;;;;5065351;28;20206;-79
2023/03/08 09:20:14;;;;;;;5.23;3.30;;;8.90;99.90;;;;;;5047447;28;20220;-78
2023/03/08 09:22:40;;;;;;;6.33;3.50;;;8.90;99.90;;;;;;5059453;28;20164;-78
2023/03/08 09:25:07;;;;;;;4.53;2.63;;;8.80;99.90;;;;;;5066912;28;20215;-76
2023/03/08 09:27:34;;;;;;;5.90;2.90;;;8.30;99.90;;;;;;5061288;28;20196;-77
2023/03/08 09:30:00;;;;;;;3.33;1.90;;;8.20;99.90;;;;;;5058106;28;20211;-80
2023/03/08 09:32:25;;;;;;;4.53;2.70;;;7.90;99.90;;;;;;5040833;28;20203;-78
2023/03/08 09:34:52;;;;;;;4.57;2.43;;;7.80;99.90;;;;;;5067187;28;20760;-78
2023/03/08 09:37:18;;;;;;;4.40;3.00;;;7.90;99.90;;;;;;5053175;28;20258;-76
2023/03/08 09:39:44;;;;;;;5.30;3.60;;;7.90;99.90;;;;;;5069845;28;20209;-77
2023/03/08 09:42:26;;;;;;;10.13;5.67;;;7.60;99.90;;;;;;5051008;28;21051;-77
2023/03/08 09:45:14;;;;;;;6.70;3.00;;;7.70;99.90;;;;;;5066372;28;20704;-76
2023/03/08 09:47:49;;;;;;;5.77;3.80;;;8.00;99.90;;;;;;5050874;28;20199;-77
2023/03/08 09:50:43;;;;;;;4.77;2.73;;;8.10;99.90;;;;;;5050133;28;20230;-77
2023/03/08 09:53:29;;;;;;;5.27;2.77;;;8.20;99.90;;;;;;5064188;28;20168;-77
2023/03/08 09:56:02;;;;;;;5.17;3.50;;;8.10;99.90;;;;;;5064342;28;20234;-77
2023/03/08 09:58:43;;;;;;;4.43;2.43;;;8.10;99.90;;;;;;5068959;28;20174;-78
2023/03/08 10:01:29;;;;;;;6.57;3.00;;;8.10;99.90;;;;;;5047327;28;20204;-78
2023/03/08 10:04:14;;;;;;;7.57;3.10;;;8.20;99.90;;;;;;5051697;28;20211;-78
2023/03/08 10:07:06;;;;;;;3.17;2.67;;;8.70;99.90;;;;;;5067485;28;20218;-78
2023/03/08 10:09:38;;;;;;;7.57;2.80;;;8.70;99.90;;;;;;5055960;28;20287;-78
2023/03/08 10:12:49;;;;;;;4.00;3.20;;;9.10;99.90;;;;;;5066950;28;20199;-76
2023/03/08 10:15:19;;;;;;;6.20;2.73;;;9.30;99.90;;;;;;4981686;28;20224;-77
2023/03/08 10:18:23;;;;;;;4.40;2.53;;;9.40;99.90;;;;;;5053864;28;20203;-78
2023/03/08 10:20:49;;;;;;;2.83;2.53;;;9.60;99.90;;;;;;5044041;28;20199;-78
2023/03/08 10:23:20;;;;;;;7.27;2.83;;;9.30;99.90;;;;;;5065380;28;20685;-77
2023/03/08 10:25:47;;;;;;;3.93;2.60;;;9.10;99.90;;;;;;5064352;28;20222;-76
2023/03/08 10:28:17;;;;;;;3.13;2.53;;;8.90;99.90;;;;;;5065810;28;20206;-77
2023/03/08 10:30:55;;;;;;;5.50;2.73;;;8.90;99.90;;;;;;5064980;28;20203;-77
2023/03/08 10:33:23;;;;;;;4.20;2.53;;;8.80;99.90;;;;;;5066275;28;20752;-77
2023/03/08 10:36:05;;;;;;;4.83;3.03;;;8.80;99.90;;;;;;5061460;28;20207;-77
2023/03/08 10:38:34;;;;;;;3.27;2.60;;;8.70;99.90;;;;;;5064901;28;20217;-77
2023/03/08 10:41:08;;;;;;;8.13;3.10;;;8.00;99.90;;;;;;5072875;28;20171;-75
2023/03/08 10:43:38;;;;;;;3.77;2.97;;;8.10;99.90;;;;;;5064594;28;20227;-74
2023/03/08 10:46:31;;;;;;;4.10;2.83;;;7.80;99.90;;;;;;5063540;28;21024;-76
2023/03/08 10:49:18;;;;;;;4.37;2.77;;;7.80;99.90;;;;;;5056477;28;20210;-76
2023/03/08 10:51:58;;;;;;;4.00;2.50;;;7.80;99.90;;;;;;5064661;28;20210;-77
2023/03/08 10:54:25;;;;;;;2.97;2.40;;;7.80;99.90;;;;;;5065723;28;20202;-76
2023/03/08 10:56:59;;;;;;;3.07;2.77;;;7.90;99.90;;;;;;5047352;28;20207;-76
2023/03/08 10:59:33;;;;;;;3.03;2.70;;;8.00;99.90;;;;;;5047383;28;20209;-77
2023/03/08 11:02:17;;;;;;;5.17;2.63;;;8.20;99.90;;;;;;5053709;28;20179;-77
2023/03/08 11:04:55;;;;;;;4.50;2.73;;;8.30;99.90;;;;;;5065841;28;20208;-78
2023/03/08 11:07:25;;;;;;;5.73;3.00;;;8.30;99.90;;;;;;5062133;28;20203;-77
2023/03/08 11:10:02;;;;;;;5.63;3.13;;;7.70;99.90;;;;;;5065013;28;20617;-77
2023/03/08 11:12:28;;;;;;;4.70;3.17;;;7.50;99.90;;;;;;5066151;28;20202;-78
2023/03/08 11:14:53;;;;;;;4.83;3.23;;;7.70;99.90;;;;;;5065847;28;20219;-79
2023/03/08 11:17:38;;;;;;;5.57;3.10;;;7.80;99.90;;;;;;5064613;28;20215;-77
2023/03/08 11:20:25;;;;;;;4.03;3.20;;;7.80;99.90;;;;;;5068230;28;20253;-77
2023/03/08 11:23:20;;;;;;;3.80;3.20;;;7.80;99.90;;;;;;5063597;28;20175;-78
2023/03/08 11:25:57;;;;;;;5.13;3.37;;;7.30;99.90;;;;;;5048348;28;20219;-76
2023/03/08 11:28:34;;;;;;;5.70;4.03;;;6.90;99.90;;;;;;5063266;28;20230;-76
2023/03/08 11:31:22;;;;;;;4.73;3.33;;;6.90;99.90;;;;;;5063869;28;20214;-75
2023/03/08 11:34:12;;;;;;;5.13;3.43;;;7.00;99.90;;;;;;5050675;28;20210;-75
2023/03/08 11:36:58;;;;;;;6.03;3.63;;;6.60;99.90;;;;;;5046600;28;20208;-76
2023/03/08 11:39:43;;;;;;;5.47;3.67;;;6.70;99.90;;;;;;5047160;28;20203;-76
2023/03/08 11:42:45;;;;;;;6.50;3.63;;;7.20;99.90;;;;;;5064856;28;20208;-75
2023/03/08 11:45:22;;;;;;;6.23;2.97;;;7.30;99.90;;;;;;5064539;28;20285;-77
2023/03/08 11:48:08;;;;;;;4.17;3.00;;;7.60;99.90;;;;;;5067548;28;20278;-77
2023/03/08 11:51:04;;;;;;;3.87;2.77;;;7.70;99.90;;;;;;5067153;28;20217;-76
2023/03/08 11:53:44;;;;;;;3.10;2.43;;;7.10;99.90;;;;;;5050523;28;20202;-77
2023/03/08 11:56:35;;;;;;;4.97;3.17;;;6.90;99.90;;;;;;5067312;28;20336;-74
2023/03/08 11:59:27;;;;;;;5.63;2.70;;;7.10;99.90;;;;;;5065032;28;20304;-75
2023/03/08 12:02:11;;;;;;;3.30;2.47;;;7.40;99.90;;;;;;5069102;28;20190;-76
2023/03/08 12:05:00;;;;;;;3.23;2.60;;;7.30;99.90;;;;;;5070906;28;20566;-76
2023/03/08 12:07:41;;;;;;;5.43;2.87;;;7.30;99.90;;;;;;5075281;28;20688;-79
2023/03/08 12:10:36;;;;;;;4.13;2.83;;;7.40;99.90;;;;;;5067801;28;20230;-78
2023/03/08 12:13:40;;;;;;;5.77;3.67;;;7.50;99.90;;;;;;5072278;28;20285;-79
2023/03/08 12:16:10;;;;;;;7.83;2.70;;;7.10;99.90;;;;;;5065708;28;20203;-79
2023/03/08 12:18:50;;;;;;;4.83;2.90;;;6.90;99.90;;;;;;5069405;28;20199;-78
2023/03/08 12:21:32;;;;;;;4.93;3.10;;;7.00;99.90;;;;;;5053978;28;20202;-77
2023/03/08 12:24:19;;;;;;;6.00;3.10;;;6.90;99.90;;;;;;5063165;28;20245;-78
2023/03/08 12:26:55;;;;;;;6.53;2.90;;;7.10;99.90;;;;;;5065966;28;20223;-75
2023/03/08 12:29:31;;;;;;;2.90;2.60;;;7.40;99.90;;;;;;5064027;28;20317;-78
2023/03/08 12:31:57;;;;;;;4.27;2.77;;;7.60;99.90;;;;;;5070187;28;20178;-79
2023/03/08 12:34:35;;;;;;;5.60;2.93;;;7.80;99.90;;;;;;5070114;28;20705;-79
2023/03/08 12:37:00;;;;;;;3.63;2.73;;;7.50;99.90;;;;;;5068061;28;20295;-79
2023/03/08 12:39:35;;;;;;;5.03;3.40;;;7.30;99.90;;;;;;5064788;28;20290;-80
2023/03/08 12:42:14;;;;;;;4.13;2.83;;;6.90;99.90;;;;;;5067446;28;20763;-77
2023/03/08 12:44:40;;;;;;;4.27;3.03;;;6.50;99.90;;;;;;5050300;28;20207;-79
2023/03/08 12:47:12;;;;;;;6.63;3.03;;;6.50;99.90;;;;;;5050940;28;20176;-76
2023/03/08 12:49:41;;;;;;;4.03;2.97;;;6.30;99.90;;;;;;5075117;28;20167;-79
2023/03/08 12:52:16;;;;;;;4.67;3.10;;;6.20;99.90;;;;;;5069886;28;20302;-78
2023/03/08 12:55:05;;;;;;;6.27;3.73;;;6.10;99.90;;;;;;5064982;28;20245;-79
2023/03/08 12:57:41;;;;;;;4.40;3.47;;;6.00;99.90;;;;;;5051040;28;20206;-79
2023/03/08 13:00:26;;;;;;;5.90;3.50;;;6.10;99.90;;;;;;5066760;28;20751;-76
2023/03/08 13:03:18;;;;;;;4.77;3.60;;;6.20;99.90;;;;;;5067752;28;20230;-78
2023/03/08 13:05:46;;;;;;;6.17;3.40;;;6.40;99.90;;;;;;5062409;28;20745;-78
2023/03/08 13:08:11;;;;;;;4.93;3.10;;;6.50;99.90;;;;;;5071555;28;20221;-77